createdAt,value
2022-09-05T00:06:05.808Z,22.80
2022-09-05T00:08:47.499Z,22.90
2022-09-05T00:11:42.699Z,22.90
2022-09-05T00:14:35.242Z,22.80
2022-09-05T00:17:24.316Z,22.80
2022-09-05T00:24:25.893Z,22.90
2022-09-05T00:26:32.577Z,22.80
2022-09-05T00:29:12.797Z,22.80
2022-09-05T00:31:56.527Z,22.90
2022-09-05T00:34:48.189Z,22.80
2022-09-05T00:37:31.644Z,22.70
2022-09-05T00:40:31.698Z,22.70
2022-09-05T00:43:06.766Z,22.70
2022-09-05T00:51:04.447Z,22.70
2022-09-05T00:53:41.978Z,22.60
2022-09-05T00:56:22.364Z,22.60
2022-09-05T00:59:08.495Z,22.60
2022-09-05T01:01:45.831Z,22.60
2022-09-05T01:04:33.034Z,22.50
2022-09-05T01:10:13.204Z,22.50
2022-09-05T01:13:15.194Z,22.50
2022-09-05T01:15:50.069Z,22.40
2022-09-05T01:18:37.757Z,22.30
2022-09-05T01:21:26.654Z,22.20
2022-09-05T01:24:09.595Z,22.10
2022-09-05T01:34:34.156Z,22.10
2022-09-05T01:37:33.732Z,22.00
2022-09-05T01:40:16.941Z,22.20
2022-09-05T01:43:01.575Z,22.10
2022-09-05T01:45:45.984Z,22.20
2022-09-05T01:48:33.286Z,22.30
2022-09-05T01:51:28.714Z,22.30
2022-09-05T01:59:11.745Z,22.20
2022-09-05T02:02:10.917Z,22.00
2022-09-05T02:05:11.162Z,22.00
2022-09-05T02:07:57.294Z,21.90
2022-09-05T02:11:02.994Z,21.90
2022-09-05T02:13:47.307Z,21.90
2022-09-05T02:24:07.665Z,21.80
2022-09-05T02:26:47.376Z,21.80
2022-09-05T02:29:29.184Z,21.80
2022-09-05T02:32:01.676Z,21.80
2022-09-05T02:34:41.023Z,21.80
2022-09-05T02:37:16.037Z,21.70
2022-09-05T02:45:01.753Z,21.70
2022-09-05T02:48:15.312Z,21.70
2022-09-05T02:57:28.482Z,21.70
2022-09-05T02:57:34.046Z,21.70
2022-09-05T02:57:34.204Z,21.70
2022-09-05T03:00:02.984Z,21.70
2022-09-05T03:02:38.053Z,21.60
2022-09-05T03:05:17.574Z,21.60
2022-09-05T03:08:26.786Z,21.50
2022-09-05T03:16:59.082Z,21.40
2022-09-05T03:20:12.568Z,21.40
2022-09-05T03:23:16.094Z,21.50
2022-09-05T03:26:14.469Z,21.50
2022-09-05T03:29:17.524Z,21.50
2022-09-05T03:32:19.535Z,21.40
2022-09-05T03:40:36.356Z,21.40
2022-09-05T03:43:40.976Z,21.40
2022-09-05T03:46:21.808Z,21.40
2022-09-05T03:52:59.699Z,21.40
2022-09-05T03:57:11.101Z,21.40
2022-09-05T03:57:16.512Z,21.40
2022-09-05T04:08:13.653Z,21.30
2022-09-05T04:08:15.589Z,21.30
2022-09-05T04:09:51.152Z,21.30
2022-09-05T04:12:22.969Z,21.40
2022-09-05T04:14:56.384Z,21.40
2022-09-05T04:17:31.414Z,21.40
2022-09-05T04:20:08.137Z,21.40
2022-09-05T04:30:39.661Z,21.30
2022-09-05T04:33:18.766Z,21.30
2022-09-05T04:35:56.197Z,21.30
2022-09-05T04:38:36.998Z,21.20
2022-09-05T04:41:11.796Z,21.10
2022-09-05T04:43:45.376Z,21.00
2022-09-05T04:46:31.846Z,21.00
2022-09-05T04:54:33.427Z,21.30
2022-09-05T04:57:13.900Z,21.20
2022-09-05T05:03:12.963Z,21.20
2022-09-05T05:06:08.225Z,21.30
2022-09-05T05:06:19.943Z,21.30
2022-09-05T05:08:37.909Z,21.30
2022-09-05T05:19:18.816Z,21.00
2022-09-05T05:21:52.424Z,21.10
2022-09-05T05:24:27.146Z,21.10
2022-09-05T05:27:00.816Z,21.10
2022-09-05T05:29:36.784Z,21.20
2022-09-05T05:32:07.458Z,21.20
2022-09-05T05:34:45.885Z,21.10
2022-09-05T05:45:31.954Z,21.10
2022-09-05T05:48:06.160Z,21.10
2022-09-05T05:50:41.744Z,21.10
2022-09-05T05:53:36.363Z,21.20
2022-09-05T05:56:44.504Z,21.20
2022-09-05T05:59:40.774Z,21.20
2022-09-05T06:11:32.074Z,21.30
2022-09-05T06:14:55.063Z,21.40
2022-09-05T06:15:10.255Z,21.50
2022-09-05T06:18:19.817Z,21.60
2022-09-05T06:22:10.259Z,21.70
2022-09-05T06:33:09.976Z,21.90
2022-09-05T06:36:04.404Z,22.10
2022-09-05T06:38:50.733Z,22.20
2022-09-05T06:41:29.174Z,22.30
2022-09-05T06:44:18.984Z,22.30
2022-09-05T06:47:07.733Z,22.50
2022-09-05T06:58:30.764Z,22.60
2022-09-05T07:01:01.807Z,22.70
2022-09-05T07:03:47.177Z,22.80
2022-09-05T07:06:59.372Z,22.90
2022-09-05T07:09:28.464Z,23.10
2022-09-05T07:12:07.606Z,23.20
2022-09-05T07:14:44.556Z,23.20
2022-09-05T07:22:48.815Z,23.40
2022-09-05T07:25:18.424Z,23.40
2022-09-05T07:28:25.666Z,23.60
2022-09-05T07:30:43.008Z,23.70
2022-09-05T07:33:12.684Z,23.80
2022-09-05T07:35:42.792Z,24.00
2022-09-05T07:38:20.444Z,24.20
2022-09-05T07:46:05.855Z,24.60
2022-09-05T07:48:37.876Z,24.70
2022-09-05T07:56:05.785Z,24.90
2022-09-05T07:56:58.567Z,25.00
2022-09-05T07:57:25.574Z,25.30
2022-09-05T07:59:42.643Z,25.50
2022-09-05T08:02:13.506Z,25.70
2022-09-05T08:10:08.253Z,26.40
2022-09-05T08:13:22.633Z,26.90
2022-09-05T08:15:38.322Z,27.20
2022-09-05T08:18:24.662Z,27.20
2022-09-05T08:20:55.548Z,27.30
2022-09-05T08:23:39.774Z,27.30
2022-09-05T08:26:12.755Z,27.60
2022-09-05T08:33:51.014Z,28.00
2022-09-05T08:36:30.813Z,28.50
2022-09-05T08:39:02.156Z,28.60
2022-09-05T08:41:51.152Z,28.60
2022-09-05T08:46:42.600Z,28.50
2022-09-05T08:47:31.981Z,28.50
2022-09-05T08:50:53.966Z,28.60
2022-09-05T08:59:32.319Z,28.80
2022-09-05T09:02:45.503Z,29.30
2022-09-05T09:05:07.356Z,29.40
2022-09-05T09:07:47.506Z,29.40
2022-09-05T09:10:29.596Z,29.40
2022-09-05T09:13:13.406Z,29.30
2022-09-05T09:19:14.026Z,29.70
2022-09-05T09:21:49.455Z,29.80
2022-09-05T09:24:30.826Z,30.00
2022-09-05T09:27:03.236Z,30.40
2022-09-05T09:29:37.096Z,30.60
2022-09-05T09:32:09.662Z,30.70
2022-09-05T09:34:49.275Z,31.00
2022-09-05T09:41:21.067Z,31.40
2022-09-05T09:44:36.417Z,31.20
2022-09-05T09:47:14.037Z,31.20
2022-09-05T09:50:03.728Z,31.20
2022-09-05T09:52:54.158Z,31.30
2022-09-05T09:55:52.509Z,31.50
2022-09-05T10:10:45.323Z,32.00
2022-09-05T10:10:59.753Z,31.90
2022-09-05T10:13:46.768Z,32.40
2022-09-05T10:16:52.408Z,32.60
2022-09-05T10:20:11.188Z,32.70
2022-09-05T10:32:25.978Z,33.40
2022-09-05T10:35:12.789Z,33.50
2022-09-05T10:37:05.478Z,33.30
2022-09-05T10:39:36.005Z,33.20
2022-09-05T10:42:14.855Z,33.30
2022-09-05T10:44:48.598Z,33.10
2022-09-05T10:47:39.625Z,33.10
2022-09-05T10:55:21.605Z,33.10
2022-09-05T10:58:03.918Z,33.20
2022-09-05T11:02:30.158Z,33.20
2022-09-05T11:03:45.551Z,33.20
2022-09-05T11:06:24.825Z,33.00
2022-09-05T11:09:02.857Z,33.00
2022-09-05T11:11:40.267Z,33.10
2022-09-05T11:19:26.736Z,33.50
2022-09-05T11:22:13.769Z,33.50
2022-09-05T11:24:55.622Z,33.50
2022-09-05T11:27:32.127Z,33.50
2022-09-05T11:30:04.691Z,33.60
2022-09-05T11:39:51.928Z,33.60
2022-09-05T11:40:30.198Z,33.50
2022-09-05T11:43:41.139Z,33.60
2022-09-05T11:46:30.653Z,33.50
2022-09-05T11:49:24.023Z,33.60
2022-09-05T11:52:46.545Z,33.70
2022-09-05T11:55:53.497Z,33.70
2022-09-05T12:04:03.736Z,32.90
2022-09-05T12:06:59.995Z,32.30
2022-09-05T12:09:46.625Z,31.80
2022-09-05T12:15:29.038Z,31.90
2022-09-05T12:18:18.988Z,32.20
2022-09-05T12:24:07.838Z,32.30
2022-09-05T12:27:42.196Z,31.70
2022-09-05T12:29:34.084Z,31.90
2022-09-05T12:33:40.792Z,31.90
2022-09-05T12:36:07.972Z,32.20
2022-09-05T12:40:05.099Z,32.40
2022-09-05T12:42:07.481Z,31.80
2022-09-05T12:46:54.099Z,32.20
2022-09-05T12:49:35.155Z,32.10
2022-09-05T12:52:07.498Z,32.00
2022-09-05T12:54:45.676Z,31.90
2022-09-05T12:59:50.926Z,31.70
2022-09-05T13:03:04.849Z,31.70
2022-09-05T13:03:28.509Z,31.70
2022-09-05T13:14:46.485Z,31.90
2022-09-05T13:14:46.573Z,32.00
2022-09-05T13:16:45.415Z,32.10
2022-09-05T13:19:30.996Z,31.90
2022-09-05T13:22:01.336Z,31.90
2022-09-05T13:24:33.927Z,32.00
2022-09-05T13:27:13.466Z,32.10
2022-09-05T13:38:15.037Z,31.60
2022-09-05T13:38:16.163Z,31.70
2022-09-05T13:40:39.863Z,31.60
2022-09-05T13:43:11.485Z,31.60
2022-09-05T13:46:06.012Z,31.50
2022-09-05T13:59:40.687Z,31.40
2022-09-05T14:03:29.851Z,31.30
2022-09-05T14:05:35.164Z,31.50
2022-09-05T14:08:33.047Z,31.60
2022-09-05T14:11:18.386Z,31.50
2022-09-05T14:14:09.287Z,31.30
2022-09-05T14:16:53.853Z,31.30
2022-09-05T14:22:11.438Z,31.20
2022-09-05T14:24:58.517Z,31.30
2022-09-05T14:27:32.405Z,31.40
2022-09-05T14:30:38.416Z,31.30
2022-09-05T14:37:37.247Z,31.50
2022-09-05T14:37:50.764Z,31.30
2022-09-05T14:39:18.516Z,31.20
2022-09-05T14:50:13.652Z,30.70
2022-09-05T14:56:51.512Z,30.70
2022-09-05T15:02:42.810Z,30.60
2022-09-05T15:02:48.937Z,30.50
2022-09-05T15:04:40.878Z,30.40
2022-09-05T15:12:17.474Z,30.30
2022-09-05T15:13:22.768Z,30.20
2022-09-05T15:16:03.003Z,30.10
2022-09-05T15:18:34.058Z,30.20
2022-09-05T15:21:33.707Z,30.20
2022-09-05T15:24:13.641Z,30.20
2022-09-05T15:26:53.140Z,30.10
2022-09-05T15:36:46.948Z,30.00
2022-09-05T15:39:22.160Z,30.20
2022-09-05T15:41:50.447Z,30.10
2022-09-05T15:44:29.035Z,30.00
2022-09-05T15:47:01.329Z,29.90
2022-09-05T15:49:34.235Z,29.90
2022-09-05T15:52:07.943Z,30.00
2022-09-05T15:57:32.587Z,30.00
2022-09-05T16:00:06.697Z,29.80
2022-09-05T16:02:37.282Z,29.80
2022-09-05T16:10:28.557Z,29.80
2022-09-05T16:10:50.658Z,29.80
2022-09-05T16:12:03.789Z,29.70
2022-09-05T16:14:27.965Z,29.80
2022-09-05T16:24:58.230Z,29.90
2022-09-05T16:27:50.348Z,29.70
2022-09-05T16:30:24.619Z,29.50
2022-09-05T16:32:58.288Z,29.40
2022-09-05T16:35:27.021Z,29.40
2022-09-05T16:38:03.200Z,29.30
2022-09-05T16:40:34.658Z,29.30
2022-09-05T16:48:25.505Z,29.20
2022-09-05T16:50:59.307Z,29.10
2022-09-05T16:53:53.315Z,29.00
2022-09-05T16:56:33.495Z,29.00
2022-09-05T16:59:07.265Z,29.00
2022-09-05T17:02:05.518Z,28.90
2022-09-05T17:13:12.385Z,28.80
2022-09-05T17:15:52.533Z,28.80
2022-09-05T17:18:25.998Z,28.80
2022-09-05T17:20:59.426Z,28.90
2022-09-05T17:29:20.803Z,28.80
2022-09-05T17:29:31.935Z,28.60
2022-09-05T17:38:20.218Z,28.40
2022-09-05T17:41:18.736Z,28.30
2022-09-05T17:43:52.873Z,28.30
2022-09-05T17:46:25.300Z,28.40
2022-09-05T17:49:20.048Z,28.40
2022-09-05T17:52:23.170Z,28.40
2022-09-05T17:54:56.784Z,28.40
2022-09-05T18:02:55.821Z,28.10
2022-09-05T18:06:08.026Z,28.00
2022-09-05T18:08:57.246Z,27.90
2022-09-05T18:11:39.063Z,28.00
2022-09-05T18:14:46.915Z,27.90
2022-09-05T18:17:57.958Z,27.80
2022-09-05T18:24:12.076Z,27.80
2022-09-05T18:26:46.346Z,27.70
2022-09-05T18:29:57.441Z,27.60
2022-09-05T18:32:13.645Z,27.60
2022-09-05T18:35:11.855Z,27.50
2022-09-05T18:38:17.295Z,27.50
2022-09-05T18:50:21.592Z,27.50
2022-09-05T18:52:08.038Z,27.30
2022-09-05T18:54:44.596Z,27.30
2022-09-05T18:57:28.855Z,27.30
2022-09-05T19:00:03.153Z,27.20
2022-09-05T19:02:51.607Z,27.30
2022-09-05T19:05:42.198Z,27.30
2022-09-05T19:13:23.736Z,27.30
2022-09-05T19:16:43.777Z,27.20
2022-09-05T19:19:16.286Z,27.20
2022-09-05T19:22:33.223Z,27.10
2022-09-05T19:24:45.438Z,27.10
2022-09-05T19:32:31.706Z,27.00
2022-09-05T19:37:14.797Z,27.00
2022-09-05T19:38:07.032Z,27.00
2022-09-05T19:47:27.753Z,27.00
2022-09-05T19:47:44.520Z,27.10
2022-09-05T19:47:44.712Z,27.00
2022-09-05T19:49:15.786Z,26.90
2022-09-05T19:51:49.138Z,26.90
2022-09-05T19:54:42.881Z,26.90
2022-09-05T20:02:38.268Z,26.90
2022-09-05T20:05:10.378Z,26.80
2022-09-05T20:07:50.329Z,26.80
2022-09-05T20:10:31.375Z,26.80
2022-09-05T20:13:04.096Z,26.80
2022-09-05T20:15:38.966Z,26.80
2022-09-05T20:18:23.915Z,26.80
2022-09-05T20:26:05.256Z,26.50
2022-09-05T20:28:35.459Z,26.50
2022-09-05T20:31:08.394Z,26.50
2022-09-05T20:33:48.240Z,26.40
2022-09-05T20:41:35.310Z,26.40
2022-09-05T20:43:19.255Z,26.40
2022-09-05T20:43:35.888Z,26.40
2022-09-05T20:54:21.961Z,26.40
2022-09-05T20:54:28.651Z,26.40
2022-09-05T20:56:22.639Z,26.40
2022-09-05T20:58:55.459Z,26.30
2022-09-05T21:01:23.855Z,26.30
2022-09-05T21:03:57.301Z,26.30
2022-09-05T21:06:33.719Z,26.30
2022-09-05T21:14:29.154Z,26.10
2022-09-05T21:17:01.346Z,26.10
2022-09-05T21:19:43.825Z,26.00
2022-09-05T21:22:25.466Z,25.90
2022-09-05T21:25:09.057Z,25.70
2022-09-05T21:27:37.236Z,25.60
2022-09-05T21:30:26.075Z,25.70
2022-09-05T21:40:22.471Z,25.80
2022-09-05T21:47:33.548Z,25.60
2022-09-05T21:47:46.945Z,25.60
2022-09-05T21:48:27.099Z,25.60
2022-09-05T21:50:57.788Z,25.60
2022-09-05T21:55:54.770Z,25.50
2022-09-05T21:59:27.564Z,25.40
2022-09-05T22:04:23.420Z,25.30
2022-09-05T22:06:53.746Z,25.20
2022-09-05T22:09:22.918Z,25.30
2022-09-05T22:11:54.776Z,25.40
2022-09-05T22:14:24.031Z,25.30
2022-09-05T22:16:56.378Z,25.20
2022-09-05T22:19:37.288Z,25.30
2022-09-05T22:27:14.648Z,25.40
2022-09-05T22:29:44.427Z,25.40
2022-09-05T22:32:17.148Z,25.30
2022-09-05T22:34:54.419Z,25.40
2022-09-05T22:37:22.418Z,25.40
2022-09-05T22:39:50.078Z,25.30
2022-09-05T22:42:19.069Z,25.30
2022-09-05T22:44:48.098Z,25.20
2022-09-05T22:52:20.816Z,25.30
2022-09-05T22:54:48.648Z,25.20
2022-09-05T22:57:16.531Z,25.20
2022-09-05T22:59:44.326Z,25.10
2022-09-05T23:02:11.637Z,25.10
2022-09-05T23:04:39.647Z,25.10
2022-09-05T23:07:07.435Z,25.10
2022-09-05T23:12:15.425Z,25.00
2022-09-05T23:14:42.945Z,25.20
2022-09-05T23:17:15.488Z,25.10
2022-09-05T23:19:43.187Z,25.00
2022-09-05T23:22:11.133Z,25.00
2022-09-05T23:24:38.928Z,25.00
2022-09-05T23:27:06.245Z,24.90
2022-09-05T23:32:13.547Z,24.90
2022-09-05T23:34:41.507Z,24.90
2022-09-05T23:37:09.525Z,24.90
2022-09-05T23:39:37.543Z,24.90
2022-09-05T23:42:05.187Z,24.80
2022-09-05T23:44:32.747Z,24.70
2022-09-05T23:47:00.456Z,24.70
2022-09-05T23:57:24.425Z,24.60
2022-09-05T23:59:52.476Z,24.70
